Time;durP1;ratioP1;P1;durP2;ratioP2;P2;SDS_P1;SDS_P2;PMS_P1;PMS_P2;Temp;Humidity;BMP_temperature;BMP_pressure;BME280_temperature;BME280_humidity;BME280_pressure;Samples;Min_cycle;Max_cycle;Signal;HPM_P1;HPM_P2
2021/07/14 00:00:50;;;;;;;9.70;5.20;;;25.50;56.20;;;;;;4330992;33;20071;-36
2021/07/14 00:03:20;;;;;;;9.65;5.40;;;25.50;56.20;;;;;;4318995;33;20083;-36
2021/07/14 00:05:46;;;;;;;8.82;5.57;;;25.50;56.20;;;;;;4343263;33;20179;-38
2021/07/14 00:08:13;;;;;;;9.80;5.40;;;25.50;56.20;;;;;;4318288;33;20093;-37
2021/07/14 00:10:40;;;;;;;10.55;5.22;;;25.50;56.20;;;;;;4330949;33;20090;-37
2021/07/14 00:23:59;;;;;;;9.95;5.37;;;25.50;56.40;;;;;;4344891;33;20086;-37
2021/07/14 00:26:25;;;;;;;13.85;6.43;;;25.50;56.50;;;;;;4345315;33;20055;-37
2021/07/14 00:28:52;;;;;;;14.50;6.70;;;25.50;56.80;;;;;;4331445;33;20163;-37
2021/07/14 00:31:19;;;;;;;12.02;6.15;;;25.50;57.10;;;;;;4331678;33;20078;-37
2021/07/14 00:33:46;;;;;;;11.48;6.45;;;25.50;57.40;;;;;;4331267;33;20491;-37
2021/07/14 00:36:13;;;;;;;15.65;5.95;;;25.50;57.60;;;;;;4331263;33;20077;-36
2021/07/14 00:38:40;;;;;;;4.20;2.60;;;25.50;57.90;;;;;;4331183;33;20073;-37
2021/07/14 00:41:06;;;;;;;10.25;3.80;;;25.40;58.00;;;;;;4300811;33;20083;-37
2021/07/14 00:43:33;;;;;;;8.77;4.35;;;25.40;58.30;;;;;;4312865;33;20091;-37
2021/07/14 00:46:21;;;;;;;13.88;4.47;;;25.40;58.40;;;;;;4300925;33;20067;-37
2021/07/14 00:48:49;;;;;;;7.60;4.62;;;25.40;58.70;;;;;;4289069;33;20067;-37
2021/07/14 00:51:16;;;;;;;9.13;4.40;;;25.40;58.90;;;;;;4313114;33;20079;-37
2021/07/14 00:53:43;;;;;;;9.30;4.78;;;25.40;59.00;;;;;;4300748;33;20162;-37
2021/07/14 00:56:10;;;;;;;2.53;1.50;;;25.40;59.20;;;;;;4313005;33;20130;-37
2021/07/14 00:58:37;;;;;;;10.00;5.15;;;25.40;59.40;;;;;;4323815;33;20098;-37
2021/07/14 01:01:04;;;;;;;6.93;3.40;;;25.40;59.40;;;;;;4327091;33;20070;-37
2021/07/14 01:03:37;;;;;;;6.15;2.92;;;25.40;59.40;;;;;;4315374;33;20137;-37
2021/07/14 01:06:04;;;;;;;6.62;3.75;;;25.40;59.50;;;;;;4315296;33;20081;-37
2021/07/14 01:09:02;;;;;;;6.72;4.57;;;25.40;59.50;;;;;;4322433;33;20167;-37
2021/07/14 01:11:31;;;;;;;2.65;1.08;;;25.40;59.60;;;;;;4287675;33;20196;-37
2021/07/14 01:14:22;;;;;;;8.57;4.37;;;25.40;59.50;;;;;;4300927;33;20058;-37
2021/07/14 01:16:59;;;;;;;3.75;2.75;;;25.40;59.60;;;;;;4300356;33;20081;-37
2021/07/14 01:19:53;;;;;;;5.85;5.18;;;25.50;59.70;;;;;;4298033;33;20067;-37
2021/07/14 01:23:01;;;;;;;4.18;2.30;;;25.50;59.70;;;;;;4298212;33;20083;-37
2021/07/14 01:25:52;;;;;;;3.90;1.87;;;25.40;59.70;;;;;;4297924;33;20595;-37
2021/07/14 01:28:24;;;;;;;6.28;3.70;;;25.40;59.80;;;;;;4286259;33;20080;-36
2021/07/14 01:30:51;;;;;;;2.08;1.62;;;25.50;59.90;;;;;;4274005;33;20087;-36
2021/07/14 01:33:21;;;;;;;2.72;2.40;;;25.50;59.90;;;;;;4285480;33;20625;-36
2021/07/14 01:35:48;;;;;;;7.78;4.30;;;25.50;59.90;;;;;;4285715;33;20072;-36
2021/07/14 01:38:15;;;;;;;5.43;4.30;;;25.50;59.90;;;;;;4285503;33;20091;-36
2021/07/14 01:40:41;;;;;;;5.05;3.12;;;25.60;59.80;;;;;;4297655;33;20163;-36
2021/07/14 01:43:08;;;;;;;11.73;4.97;;;25.70;59.80;;;;;;4285581;33;20126;-37
2021/07/14 01:45:37;;;;;;;9.00;4.75;;;25.70;59.60;;;;;;4307602;33;20059;-36
2021/07/14 01:48:04;;;;;;;4.95;3.53;;;25.80;59.60;;;;;;4303634;33;20516;-35
2021/07/14 01:50:32;;;;;;;7.22;3.75;;;25.90;59.50;;;;;;4315374;33;20063;-35
2021/07/14 01:52:59;;;;;;;3.67;2.05;;;26.00;59.40;;;;;;4315436;33;20067;-35
2021/07/14 01:55:26;;;;;;;6.70;5.15;;;26.10;59.00;;;;;;4315431;33;20082;-35
2021/07/14 01:57:53;;;;;;;3.78;0.90;;;26.20;58.90;;;;;;4316186;33;20047;-35
2021/07/14 02:00:20;;;;;;;4.12;1.55;;;26.30;58.30;;;;;;4303808;33;20070;-35
2021/07/14 02:03:08;;;;;;;6.65;1.23;;;26.40;58.10;;;;;;4315068;33;20084;-36
2021/07/14 02:05:41;;;;;;;2.72;1.58;;;26.50;57.90;;;;;;4317855;33;20079;-37
2021/07/14 02:08:08;;;;;;;4.20;3.30;;;26.50;58.30;;;;;;4313141;33;20063;-36
2021/07/14 02:10:34;;;;;;;6.15;3.10;;;26.60;57.30;;;;;;4329925;33;20074;-36
2021/07/14 02:13:01;;;;;;;4.12;3.62;;;26.80;57.00;;;;;;4305893;33;20055;-37
2021/07/14 02:15:30;;;;;;;6.18;4.60;;;26.90;56.50;;;;;;4305675;33;20090;-37
2021/07/14 02:18:10;;;;;;;4.72;3.25;;;27.00;56.00;;;;;;4305683;33;20066;-37
2021/07/14 02:20:36;;;;;;;8.32;4.07;;;27.10;55.50;;;;;;4343746;33;20074;-37
2021/07/14 02:23:09;;;;;;;8.25;4.43;;;27.30;54.80;;;;;;4317894;33;20063;-37
2021/07/14 02:25:36;;;;;;;7.40;5.20;;;27.40;54.50;;;;;;4343623;33;20073;-37
2021/07/14 02:28:03;;;;;;;8.43;4.15;;;27.50;54.10;;;;;;4329606;33;20170;-36
2021/07/14 02:30:29;;;;;;;5.85;4.45;;;27.60;53.60;;;;;;4343410;33;20094;-36
2021/07/14 02:33:01;;;;;;;9.30;4.35;;;27.80;53.10;;;;;;4317619;33;20073;-37
2021/07/14 02:35:29;;;;;;;8.15;4.65;;;27.90;52.60;;;;;;4311298;33;20074;-37
2021/07/14 02:38:16;;;;;;;8.80;4.25;;;28.10;52.20;;;;;;4287630;33;20122;-36
2021/07/14 02:41:05;;;;;;;6.20;4.50;;;28.20;51.70;;;;;;4256353;33;20152;-36
2021/07/14 02:43:34;;;;;;;5.43;4.28;;;28.40;51.40;;;;;;4268231;33;20257;-37
2021/07/14 02:46:08;;;;;;;6.20;4.53;;;28.50;50.70;;;;;;4256758;33;20075;-37
2021/07/14 02:48:34;;;;;;;7.07;4.05;;;28.60;50.00;;;;;;4225715;33;20141;-36
2021/07/14 02:51:01;;;;;;;6.55;4.00;;;28.70;49.40;;;;;;4225305;33;20204;-37
2021/07/14 02:53:30;;;;;;;7.40;4.10;;;28.80;48.80;;;;;;4225426;33;20510;-36
2021/07/14 02:56:08;;;;;;;9.35;4.68;;;28.90;48.50;;;;;;4214140;33;20561;-37
2021/07/14 02:58:35;;;;;;;6.55;3.37;;;29.00;48.30;;;;;;4225468;33;20096;-36
2021/07/14 03:01:02;;;;;;;10.27;4.00;;;29.10;48.00;;;;;;4213927;33;20602;-36
2021/07/14 03:03:28;;;;;;;6.30;3.55;;;29.20;47.90;;;;;;4225404;33;20100;-36
2021/07/14 03:05:56;;;;;;;6.18;2.97;;;29.20;47.60;;;;;;4225789;33;20066;-36
2021/07/14 03:08:31;;;;;;;5.62;3.80;;;29.30;47.20;;;;;;4234987;33;20486;-36
2021/07/14 03:10:59;;;;;;;;;;;29.40;46.90;;;;;;4247713;33;20110;-36
2021/07/14 03:13:30;;;;;;;5.53;4.53;;;29.60;47.60;;;;;;4302498;33;20025;-36
2021/07/14 03:15:57;;;;;;;9.93;4.53;;;29.60;46.20;;;;;;4311287;33;20077;-36
2021/07/14 03:18:27;;;;;;;8.75;4.90;;;29.80;46.40;;;;;;4311004;33;20075;-35
2021/07/14 03:20:55;;;;;;;5.65;4.10;;;29.80;46.30;;;;;;4345785;33;20152;-35
2021/07/14 03:23:22;;;;;;;11.18;4.93;;;29.90;45.80;;;;;;4332393;33;20129;-35
2021/07/14 03:25:52;;;;;;;7.45;4.70;;;30.00;45.80;;;;;;4301910;33;20501;-35
2021/07/14 03:28:20;;;;;;;5.82;4.10;;;30.00;45.50;;;;;;4290125;33;20067;-37
2021/07/14 03:30:47;;;;;;;6.97;4.10;;;30.10;44.80;;;;;;4290109;33;20147;-36
2021/07/14 03:33:15;;;;;;;9.52;3.80;;;30.20;44.50;;;;;;4269979;33;20504;-36
2021/07/14 03:35:42;;;;;;;4.55;2.72;;;30.30;43.80;;;;;;4270460;33;20107;-37
2021/07/14 03:38:10;;;;;;;3.35;2.47;;;30.30;43.00;;;;;;4270221;33;20069;-36
2021/07/14 03:40:41;;;;;;;9.32;3.37;;;30.30;42.50;;;;;;4259297;33;20076;-36
2021/07/14 03:43:07;;;;;;;4.55;3.42;;;30.30;42.10;;;;;;4258838;33;20080;-36
2021/07/14 03:45:34;;;;;;;7.68;3.47;;;30.30;42.10;;;;;;4258334;33;20155;-36
2021/07/14 03:48:00;;;;;;;4.30;3.50;;;30.30;42.50;;;;;;4270659;33;20091;-38
2021/07/14 03:50:27;;;;;;;9.30;3.30;;;30.30;42.30;;;;;;4270339;33;20573;-36
2021/07/14 03:52:53;;;;;;;10.32;3.60;;;30.40;42.30;;;;;;4270605;33;20076;-37
2021/07/14 03:55:20;;;;;;;4.90;4.22;;;30.50;42.40;;;;;;4270103;33;20096;-37
2021/07/14 03:57:47;;;;;;;2.75;2.28;;;30.50;41.90;;;;;;4275958;33;20087;-37
2021/07/14 04:00:14;;;;;;;10.40;4.00;;;30.60;41.70;;;;;;4273008;33;20547;-36
2021/07/14 04:02:44;;;;;;;4.22;2.78;;;30.70;41.50;;;;;;4279966;33;20106;-37
2021/07/14 04:05:11;;;;;;;11.25;6.28;;;30.80;41.00;;;;;;4341800;33;20105;-36
2021/07/14 04:07:39;;;;;;;2.83;2.28;;;30.90;40.10;;;;;;4345071;33;20097;-37
2021/07/14 04:10:06;;;;;;;6.75;3.47;;;30.90;39.50;;;;;;4307570;33;20069;-35
2021/07/14 04:12:33;;;;;;;4.25;2.10;;;30.90;39.40;;;;;;4331784;33;20043;-35
2021/07/14 04:15:00;;;;;;;4.50;2.40;;;31.00;39.30;;;;;;4327840;33;20118;-35
2021/07/14 04:17:26;;;;;;;4.53;1.90;;;31.00;38.30;;;;;;4312762;33;20104;-36
2021/07/14 04:19:52;;;;;;;3.37;2.72;;;31.00;38.10;;;;;;4313377;33;20086;-37
2021/07/14 04:22:19;;;;;;;3.80;1.80;;;31.00;37.80;;;;;;4301380;33;20078;-36
2021/07/14 04:24:45;;;;;;;3.15;2.40;;;31.00;37.40;;;;;;4301071;33;20137;-36
2021/07/14 04:27:12;;;;;;;5.32;3.45;;;31.00;38.20;;;;;;4313381;33;20087;-35
2021/07/14 04:29:38;;;;;;;5.07;3.08;;;31.10;38.90;;;;;;4300295;33;20119;-36
2021/07/14 04:32:05;;;;;;;4.97;3.00;;;31.10;38.30;;;;;;4313035;33;20625;-36
2021/07/14 04:34:32;;;;;;;6.35;3.37;;;31.30;38.10;;;;;;4313284;33;20140;-37
2021/07/14 04:36:58;;;;;;;5.97;3.22;;;31.40;37.70;;;;;;4312826;33;20626;-37
2021/07/14 04:39:25;;;;;;;3.47;2.60;;;31.50;37.80;;;;;;4300916;33;20552;-37
2021/07/14 04:41:51;;;;;;;7.93;3.05;;;31.50;37.70;;;;;;4312650;33;20082;-36
2021/07/14 04:44:29;;;;;;;5.95;3.40;;;31.60;37.60;;;;;;4301014;33;20548;-37
2021/07/14 04:46:56;;;;;;;9.52;3.83;;;31.70;37.40;;;;;;4313273;33;20294;-37
2021/07/14 04:49:23;;;;;;;3.03;2.42;;;31.80;37.30;;;;;;4313094;33;20534;-37
2021/07/14 04:51:49;;;;;;;5.10;2.75;;;31.90;36.40;;;;;;4316272;33;20091;-37
2021/07/14 04:54:15;;;;;;;4.93;3.22;;;32.00;35.50;;;;;;4331801;33;20074;-37
2021/07/14 04:56:44;;;;;;;5.75;3.90;;;32.10;36.20;;;;;;4330921;33;20194;-37
2021/07/14 04:59:10;;;;;;;4.85;2.30;;;32.20;36.30;;;;;;4345949;32;20081;-36
2021/07/14 05:01:37;;;;;;;2.20;1.70;;;32.30;35.60;;;;;;4359284;32;20532;-37
2021/07/14 05:04:03;;;;;;;8.52;2.65;;;32.40;33.90;;;;;;4359610;32;20150;-37
2021/07/14 05:06:30;;;;;;;7.20;2.30;;;32.50;34.20;;;;;;4359151;32;20441;-37
2021/07/14 05:08:58;;;;;;;1.83;1.00;;;32.60;34.20;;;;;;4344959;32;20666;-37
2021/07/14 05:11:24;;;;;;;2.95;1.55;;;32.70;33.60;;;;;;4345021;32;20141;-36
2021/07/14 05:13:51;;;;;;;1.58;0.85;;;32.80;33.20;;;;;;4345475;32;20066;-38
2021/07/14 05:16:17;;;;;;;3.53;1.37;;;32.90;31.10;;;;;;4359307;32;20058;-37
2021/07/14 05:18:45;;;;;;;2.47;1.52;;;33.00;31.60;;;;;;4359486;32;20063;-38
2021/07/14 05:21:11;;;;;;;1.50;0.90;;;33.10;31.80;;;;;;4345806;32;20455;-38
2021/07/14 05:23:37;;;;;;;2.60;1.25;;;33.00;32.00;;;;;;4359436;32;20070;-37
2021/07/14 05:26:04;;;;;;;2.65;1.73;;;33.00;31.80;;;;;;4359223;32;20088;-37
2021/07/14 05:28:31;;;;;;;1.92;1.12;;;33.00;32.60;;;;;;4359200;32;20094;-37
2021/07/14 05:30:57;;;;;;;4.03;1.70;;;32.90;32.30;;;;;;4358967;32;20086;-37
2021/07/14 05:33:24;;;;;;;3.60;0.70;;;32.90;32.80;;;;;;4359194;32;20082;-37
2021/07/14 05:35:54;;;;;;;1.23;0.88;;;32.90;32.70;;;;;;4358985;32;20085;-37
2021/07/14 05:38:21;;;;;;;2.25;1.75;;;33.00;32.80;;;;;;4359059;32;20155;-37
2021/07/14 05:40:49;;;;;;;1.60;0.98;;;33.10;32.70;;;;;;4358669;32;20154;-37
2021/07/14 05:43:15;;;;;;;3.58;1.02;;;33.10;32.20;;;;;;4344234;32;20090;-36
2021/07/14 05:45:42;;;;;;;6.55;1.15;;;33.10;31.80;;;;;;4358690;32;20066;-36
2021/07/14 05:48:08;;;;;;;2.62;1.60;;;33.10;31.60;;;;;;4358860;32;20483;-37
2021/07/14 05:50:36;;;;;;;1.17;0.75;;;33.30;31.60;;;;;;4345215;32;20066;-36
2021/07/14 05:53:04;;;;;;;0.88;0.60;;;33.40;32.30;;;;;;4358968;32;20090;-38
2021/07/14 05:55:31;;;;;;;2.03;1.20;;;33.40;31.50;;;;;;4358543;32;20477;-36
2021/07/14 05:57:58;;;;;;;2.10;1.35;;;33.50;31.50;;;;;;4334937;33;20063;-37
2021/07/14 06:00:26;;;;;;;2.87;1.50;;;33.60;31.20;;;;;;4329318;33;20085;-37
2021/07/14 06:02:52;;;;;;;4.50;1.95;;;33.70;31.30;;;;;;4339439;33;20093;-37
2021/07/14 06:05:19;;;;;;;1.70;0.90;;;33.70;31.00;;;;;;4329106;33;20051;-36
2021/07/14 06:07:45;;;;;;;4.65;1.30;;;33.80;31.00;;;;;;4341469;32;20482;-36
2021/07/14 06:10:11;;;;;;;1.98;0.80;;;33.80;30.90;;;;;;4344362;32;20070;-36
2021/07/14 06:12:38;;;;;;;3.70;1.02;;;33.80;30.90;;;;;;4358504;32;20075;-36
2021/07/14 06:15:06;;;;;;;0.35;0.30;;;33.80;30.90;;;;;;4358223;32;20482;-37
2021/07/14 06:17:32;;;;;;;2.95;1.23;;;33.80;30.80;;;;;;4358290;32;20064;-37
2021/07/14 06:19:59;;;;;;;1.30;0.65;;;33.90;30.80;;;;;;4358572;32;20153;-37
2021/07/14 06:22:27;;;;;;;1.90;0.80;;;34.00;30.80;;;;;;4325962;33;20071;-37
2021/07/14 06:24:54;;;;;;;4.72;1.62;;;33.90;30.70;;;;;;4314508;33;20082;-38
2021/07/14 06:27:20;;;;;;;2.72;1.52;;;34.00;30.50;;;;;;4314098;33;20065;-37
2021/07/14 06:29:47;;;;;;;2.15;1.23;;;34.30;30.60;;;;;;4326143;33;20114;-37
2021/07/14 06:32:13;;;;;;;1.55;1.05;;;34.70;30.40;;;;;;4326197;33;20087;-37
2021/07/14 06:34:41;;;;;;;2.30;1.10;;;35.00;30.00;;;;;;4326254;33;20650;-37
2021/07/14 06:37:08;;;;;;;5.28;0.70;;;35.00;29.70;;;;;;4314806;33;20063;-37
2021/07/14 06:39:34;;;;;;;6.18;1.00;;;35.00;29.40;;;;;;4325970;33;20155;-37
2021/07/14 06:42:01;;;;;;;1.15;0.98;;;34.90;29.40;;;;;;4325966;33;20628;-37
2021/07/14 06:44:28;;;;;;;0.85;0.50;;;34.80;29.40;;;;;;4325868;33;20065;-36
2021/07/14 06:46:54;;;;;;;1.27;0.70;;;34.80;29.70;;;;;;4326257;33;20131;-36
2021/07/14 06:49:20;;;;;;;2.67;1.00;;;34.60;29.70;;;;;;4296499;33;20582;-36
2021/07/14 06:51:48;;;;;;;2.28;1.52;;;34.40;29.80;;;;;;4296732;33;20559;-36
2021/07/14 06:54:14;;;;;;;1.35;0.93;;;34.50;29.90;;;;;;4284729;33;20220;-37
2021/07/14 06:56:41;;;;;;;1.52;1.20;;;34.40;29.90;;;;;;4297086;33;20086;-36
2021/07/14 06:59:07;;;;;;;1.83;1.35;;;34.40;30.00;;;;;;4299515;33;20162;-37
2021/07/14 07:01:34;;;;;;;2.50;1.58;;;34.50;30.00;;;;;;4298872;33;20052;-37
2021/07/14 07:04:00;;;;;;;1.67;1.50;;;34.60;30.20;;;;;;4311004;33;20619;-36
2021/07/14 07:06:28;;;;;;;1.77;1.30;;;34.80;29.90;;;;;;4298791;33;20067;-36
2021/07/14 07:08:55;;;;;;;2.42;1.20;;;35.00;29.50;;;;;;4310994;33;20225;-37
2021/07/14 07:11:21;;;;;;;2.40;1.50;;;35.00;29.60;;;;;;4299120;33;20090;-36
2021/07/14 07:13:48;;;;;;;0.62;0.55;;;35.20;29.50;;;;;;4311366;33;20099;-37
2021/07/14 07:16:14;;;;;;;2.90;1.35;;;35.50;29.50;;;;;;4311036;33;20149;-37
2021/07/14 07:18:40;;;;;;;2.08;0.82;;;35.60;29.10;;;;;;4311216;33;20079;-37
2021/07/14 07:21:09;;;;;;;1.95;1.67;;;35.60;28.80;;;;;;4311241;33;20083;-38
2021/07/14 07:23:36;;;;;;;1.05;0.80;;;35.80;29.00;;;;;;4311338;33;20538;-38
2021/07/14 07:26:05;;;;;;;1.55;1.00;;;35.80;28.90;;;;;;4302102;33;20082;-38
2021/07/14 07:28:36;;;;;;;1.77;0.85;;;35.70;28.90;;;;;;4328337;33;20188;-37
2021/07/14 07:31:04;;;;;;;1.52;0.70;;;35.80;28.90;;;;;;4328412;33;20063;-37
2021/07/14 07:33:30;;;;;;;0.60;0.50;;;35.80;28.70;;;;;;4328089;33;20141;-37
2021/07/14 07:35:57;;;;;;;2.40;1.33;;;35.70;28.80;;;;;;4328155;33;20512;-37
2021/07/14 07:38:23;;;;;;;1.23;1.10;;;35.60;29.00;;;;;;4328189;33;20074;-37
2021/07/14 07:40:53;;;;;;;1.92;1.70;;;35.50;29.00;;;;;;4328338;33;20068;-37
2021/07/14 07:43:21;;;;;;;3.42;1.60;;;35.50;29.10;;;;;;4314872;33;20237;-37
2021/07/14 07:45:48;;;;;;;2.33;1.50;;;35.50;29.30;;;;;;4328055;33;20063;-37
2021/07/14 07:48:14;;;;;;;1.65;1.50;;;35.70;29.40;;;;;;4314558;33;20090;-37
2021/07/14 07:50:41;;;;;;;1.70;1.20;;;35.90;28.90;;;;;;4328154;33;20062;-37
2021/07/14 07:53:07;;;;;;;3.28;2.08;;;36.00;28.70;;;;;;4328373;33;20090;-37
2021/07/14 07:55:34;;;;;;;0.95;0.75;;;36.00;28.50;;;;;;4328289;33;20069;-37
2021/07/14 07:58:00;;;;;;;1.37;1.02;;;36.10;28.50;;;;;;4321435;33;20079;-37
2021/07/14 08:00:27;;;;;;;2.12;1.02;;;36.10;28.50;;;;;;4328831;33;20070;-37
2021/07/14 08:02:55;;;;;;;3.15;1.40;;;36.10;28.40;;;;;;4342643;33;20113;-37
2021/07/14 08:05:22;;;;;;;3.00;1.35;;;36.10;28.40;;;;;;4344001;32;20145;-37
2021/07/14 08:07:49;;;;;;;1.55;1.17;;;36.20;28.60;;;;;;4338282;32;20568;-38
2021/07/14 08:10:15;;;;;;;2.28;1.23;;;36.50;28.50;;;;;;4346710;32;20082;-37
2021/07/14 08:12:42;;;;;;;4.62;1.58;;;36.50;28.00;;;;;;4358212;32;20514;-37
2021/07/14 08:15:10;;;;;;;5.40;1.55;;;36.60;28.30;;;;;;4346385;32;20098;-38
2021/07/14 08:17:36;;;;;;;2.12;1.37;;;36.70;28.30;;;;;;4360185;32;20063;-37
2021/07/14 08:20:06;;;;;;;2.05;0.80;;;36.90;28.10;;;;;;4360143;32;20086;-38
2021/07/14 08:22:32;;;;;;;1.60;1.50;;;37.00;27.70;;;;;;4359938;32;20595;-38
2021/07/14 08:24:59;;;;;;;1.75;1.52;;;37.00;27.50;;;;;;4360159;32;20076;-36
2021/07/14 08:27:25;;;;;;;0.90;0.85;;;37.00;27.70;;;;;;4359931;32;20138;-37
2021/07/14 08:29:58;;;;;;;1.00;0.60;;;36.80;27.90;;;;;;4359951;32;20113;-38
2021/07/14 08:32:28;;;;;;;4.37;1.67;;;36.60;27.90;;;;;;4359409;32;20074;-37
2021/07/14 08:34:55;;;;;;;1.92;1.33;;;36.60;27.90;;;;;;4346156;32;20605;-37
2021/07/14 08:37:22;;;;;;;1.58;0.82;;;36.60;28.10;;;;;;4359892;32;20062;-37
2021/07/14 08:39:51;;;;;;;1.00;0.62;;;36.50;28.00;;;;;;4345892;32;20156;-37
2021/07/14 08:42:18;;;;;;;2.33;1.52;;;36.40;28.00;;;;;;4360356;32;20079;-36
2021/07/14 08:44:45;;;;;;;1.95;1.42;;;36.40;28.00;;;;;;4359980;32;20139;-37
2021/07/14 08:47:12;;;;;;;2.03;1.27;;;36.50;28.10;;;;;;4359686;32;20070;-37
2021/07/14 08:49:40;;;;;;;1.55;1.33;;;36.70;28.20;;;;;;4359681;32;20596;-36
2021/07/14 08:52:07;;;;;;;2.97;0.70;;;36.90;27.90;;;;;;4346225;32;20059;-37
2021/07/14 08:54:36;;;;;;;2.35;0.47;;;37.00;27.70;;;;;;4333186;32;20518;-38
2021/07/14 08:57:03;;;;;;;1.80;0.95;;;36.90;27.40;;;;;;4344172;32;20092;-38
2021/07/14 08:59:30;;;;;;;1.90;0.60;;;36.90;27.30;;;;;;4326771;33;20075;-38
2021/07/14 09:01:57;;;;;;;2.47;0.85;;;36.90;27.30;;;;;;4302747;33;20183;-38
2021/07/14 09:04:23;;;;;;;2.53;1.17;;;36.80;26.90;;;;;;4300362;33;20133;-38
2021/07/14 09:06:49;;;;;;;3.85;1.10;;;36.80;27.40;;;;;;4312846;33;20510;-38
2021/07/14 09:09:16;;;;;;;2.78;1.10;;;36.70;27.30;;;;;;4313120;33;20534;-38
2021/07/14 09:11:58;;;;;;;1.42;0.93;;;36.80;27.40;;;;;;4300151;33;20099;-38
2021/07/14 09:14:35;;;;;;;1.73;1.20;;;36.80;27.50;;;;;;4300943;33;20059;-38
2021/07/14 09:17:19;;;;;;;1.80;0.95;;;36.60;28.20;;;;;;4300518;33;20086;-38
2021/07/14 09:19:46;;;;;;;2.37;1.37;;;36.60;28.40;;;;;;4301790;33;20433;-38
2021/07/14 09:22:31;;;;;;;1.27;0.47;;;36.70;28.30;;;;;;4300359;33;20606;-38
2021/07/14 09:24:58;;;;;;;6.95;1.52;;;36.70;28.50;;;;;;4312513;33;20090;-38
2021/07/14 09:27:35;;;;;;;4.20;0.82;;;36.80;28.60;;;;;;4312438;33;20547;-38
2021/07/14 09:30:10;;;;;;;3.40;1.67;;;36.90;28.40;;;;;;4312016;33;20083;-37
2021/07/14 09:32:50;;;;;;;1.95;1.30;;;37.00;28.30;;;;;;4297014;33;20163;-38
2021/07/14 09:35:28;;;;;;;1.37;0.43;;;37.10;28.00;;;;;;4297687;33;20144;-37
2021/07/14 09:37:59;;;;;;;2.87;1.30;;;37.00;27.60;;;;;;4297383;33;20152;-38
2021/07/14 09:40:26;;;;;;;2.25;1.12;;;37.00;27.60;;;;;;4286000;33;20547;-38
2021/07/14 09:43:02;;;;;;;4.10;1.50;;;37.10;27.50;;;;;;4297573;33;20092;-37
2021/07/14 09:45:59;;;;;;;3.37;1.70;;;37.30;27.60;;;;;;4297609;33;20512;-37
2021/07/14 09:48:38;;;;;;;0.77;0.50;;;37.40;27.60;;;;;;4297352;33;20086;-37
2021/07/14 09:51:09;;;;;;;1.20;0.85;;;37.40;27.40;;;;;;4297357;33;20071;-37
2021/07/14 09:53:39;;;;;;;1.52;1.20;;;37.30;27.90;;;;;;4297439;33;20155;-37
2021/07/14 09:56:13;;;;;;;4.22;1.20;;;37.40;27.30;;;;;;4297403;33;20300;-38
2021/07/14 09:58:40;;;;;;;1.15;0.65;;;37.40;27.20;;;;;;4308431;33;20150;-38
2021/07/14 10:01:10;;;;;;;3.05;0.55;;;37.30;27.10;;;;;;4299790;33;20162;-38
2021/07/14 10:03:38;;;;;;;1.75;1.35;;;37.20;27.20;;;;;;4311850;33;20183;-38
2021/07/14 10:06:09;;;;;;;1.62;0.93;;;37.30;27.40;;;;;;4299619;33;20072;-37
2021/07/14 10:08:43;;;;;;;1.30;0.90;;;37.30;27.40;;;;;;4279216;33;20083;-37
2021/07/14 10:11:17;;;;;;;1.20;0.93;;;37.10;27.30;;;;;;4310211;33;20161;-37
2021/07/14 10:14:07;;;;;;;1.95;1.25;;;36.90;27.50;;;;;;4268122;33;20108;-36
2021/07/14 10:16:41;;;;;;;2.92;1.40;;;36.90;27.70;;;;;;4268207;33;20061;-37
2021/07/14 10:19:09;;;;;;;3.33;1.35;;;37.00;27.70;;;;;;4268118;33;20084;-36
2021/07/14 10:21:47;;;;;;;2.40;1.23;;;37.20;27.50;;;;;;4268554;33;20651;-36
2021/07/14 10:24:18;;;;;;;3.75;1.60;;;37.40;27.30;;;;;;4268371;33;20162;-37
2021/07/14 10:26:51;;;;;;;7.47;1.37;;;37.50;26.90;;;;;;4268038;33;20117;-37
2021/07/14 10:29:20;;;;;;;0.62;0.40;;;37.50;27.20;;;;;;4267814;33;20072;-37
2021/07/14 10:31:50;;;;;;;2.05;0.98;;;37.40;26.70;;;;;;4268046;33;20071;-37
2021/07/14 10:34:18;;;;;;;1.85;0.95;;;37.40;27.30;;;;;;4268125;33;20076;-37
2021/07/14 10:36:44;;;;;;;3.72;1.35;;;37.40;26.70;;;;;;4267935;33;20061;-38
2021/07/14 10:39:13;;;;;;;1.65;0.60;;;37.40;26.80;;;;;;4268262;33;20075;-36
2021/07/14 10:41:40;;;;;;;0.95;0.60;;;37.40;26.50;;;;;;4268190;33;20271;-36
2021/07/14 10:44:07;;;;;;;0.75;0.47;;;37.30;26.50;;;;;;4278206;33;20071;-37
2021/07/14 10:46:35;;;;;;;2.65;1.00;;;37.20;26.60;;;;;;4333621;33;20143;-37
2021/07/14 10:49:05;;;;;;;1.55;1.10;;;37.20;26.30;;;;;;4343451;33;20181;-38
2021/07/14 10:51:32;;;;;;;1.73;1.15;;;37.30;26.30;;;;;;4343100;33;20071;-38
2021/07/14 10:54:02;;;;;;;0.55;0.55;;;37.50;26.30;;;;;;4343139;33;20097;-38
2021/07/14 10:56:50;;;;;;;1.80;1.08;;;37.60;26.10;;;;;;4329713;33;20487;-38
2021/07/14 10:59:20;;;;;;;2.60;0.50;;;37.50;26.00;;;;;;4326982;33;20536;-37
2021/07/14 11:01:50;;;;;;;3.75;0.93;;;37.50;26.00;;;;;;4326820;33;20118;-37
2021/07/14 11:04:25;;;;;;;1.00;0.80;;;37.50;25.70;;;;;;4328085;33;20563;-37
2021/07/14 11:07:04;;;;;;;1.48;0.70;;;37.40;25.60;;;;;;4297269;33;20067;-38
2021/07/14 11:09:41;;;;;;;1.80;0.90;;;37.40;25.70;;;;;;4311137;33;20143;-38
2021/07/14 11:12:29;;;;;;;2.45;0.80;;;37.40;25.70;;;;;;4311044;33;20098;-37
2021/07/14 11:15:02;;;;;;;0.30;0.30;;;37.40;25.60;;;;;;4311187;33;20064;-37
2021/07/14 11:17:34;;;;;;;1.83;0.47;;;37.40;25.50;;;;;;4311011;33;20084;-37
2021/07/14 11:20:09;;;;;;;0.65;0.55;;;37.30;25.40;;;;;;4310726;33;20068;-37
2021/07/14 11:22:47;;;;;;;6.50;0.80;;;37.20;25.30;;;;;;4298999;33;20097;-37
2021/07/14 11:25:27;;;;;;;2.30;0.68;;;37.30;25.20;;;;;;4311388;33;20127;-38
2021/07/14 11:28:09;;;;;;;1.75;0.73;;;37.30;25.10;;;;;;4299375;33;20070;-37
2021/07/14 11:30:43;;;;;;;0.50;0.47;;;37.40;25.10;;;;;;4310818;33;20064;-36
2021/07/14 11:33:20;;;;;;;0.65;0.40;;;37.40;24.80;;;;;;4311117;33;20284;-36
2021/07/14 11:36:17;;;;;;;0.68;0.50;;;37.40;24.60;;;;;;4299405;33;20642;-37
2021/07/14 11:38:50;;;;;;;1.00;0.57;;;37.50;24.60;;;;;;4307387;33;20083;-36
2021/07/14 11:41:24;;;;;;;1.90;0.77;;;37.70;24.60;;;;;;4301008;33;20157;-37
2021/07/14 11:43:55;;;;;;;1.30;0.60;;;37.80;25.10;;;;;;4323225;33;20574;-37
2021/07/14 11:46:27;;;;;;;2.65;0.70;;;37.90;24.50;;;;;;4345707;32;20487;-36
2021/07/14 11:49:07;;;;;;;1.55;0.95;;;37.80;24.50;;;;;;4344314;33;20156;-36
2021/07/14 11:51:38;;;;;;;2.25;0.90;;;37.80;24.80;;;;;;4344213;33;20058;-36
2021/07/14 11:54:24;;;;;;;0.82;0.50;;;37.80;24.70;;;;;;4344268;33;20067;-36
2021/07/14 11:56:51;;;;;;;4.12;0.88;;;37.80;24.70;;;;;;4345782;32;20070;-36
2021/07/14 11:59:28;;;;;;;3.53;0.75;;;37.70;24.70;;;;;;4360712;32;20142;-37
2021/07/14 12:02:03;;;;;;;0.65;0.50;;;37.70;24.80;;;;;;4360513;32;20170;-37
2021/07/14 12:04:33;;;;;;;0.82;0.52;;;37.60;24.80;;;;;;4360261;32;20151;-37
2021/07/14 12:07:12;;;;;;;1.80;1.00;;;37.40;24.90;;;;;;4360332;32;20059;-36
2021/07/14 12:09:43;;;;;;;1.02;0.50;;;37.30;24.70;;;;;;4360416;32;20062;-37
2021/07/14 12:12:19;;;;;;;2.05;0.60;;;37.40;24.70;;;;;;4346479;32;20527;-38
2021/07/14 12:14:48;;;;;;;3.03;0.80;;;37.40;24.60;;;;;;4346937;32;20071;-38
2021/07/14 12:17:25;;;;;;;1.85;0.80;;;37.50;24.40;;;;;;4360269;32;20473;-37
2021/07/14 12:19:54;;;;;;;0.80;0.40;;;37.60;24.20;;;;;;4333915;32;20066;-36
2021/07/14 12:22:30;;;;;;;1.50;0.60;;;37.70;24.30;;;;;;4360156;32;20224;-36
2021/07/14 12:25:02;;;;;;;0.73;0.70;;;37.60;24.20;;;;;;4360531;32;20081;-37
2021/07/14 12:27:35;;;;;;;1.30;0.60;;;37.60;24.00;;;;;;4300940;33;20654;-36
2021/07/14 12:30:11;;;;;;;0.70;0.70;;;37.60;24.30;;;;;;4288977;33;20091;-36
2021/07/14 12:32:57;;;;;;;0.37;0.30;;;37.50;24.40;;;;;;4313292;33;20063;-36
2021/07/14 12:35:28;;;;;;;1.17;0.43;;;37.50;24.40;;;;;;4313100;33;20542;-37
2021/07/14 12:38:07;;;;;;;0.68;0.65;;;37.40;24.30;;;;;;4300814;33;20170;-36
2021/07/14 12:40:45;;;;;;;1.95;0.70;;;37.40;24.30;;;;;;4313137;33;20109;-36
2021/07/14 12:43:14;;;;;;;1.65;0.75;;;37.50;24.20;;;;;;4300772;33;20117;-36
2021/07/14 12:45:45;;;;;;;0.98;0.50;;;37.60;24.20;;;;;;4283815;33;20076;-36
2021/07/14 12:48:23;;;;;;;1.40;0.80;;;37.50;24.00;;;;;;4283697;33;20520;-36
2021/07/14 12:50:52;;;;;;;0.57;0.43;;;37.40;24.00;;;;;;4272085;33;20596;-37
2021/07/14 12:53:19;;;;;;;4.70;0.62;;;37.40;24.00;;;;;;4284194;33;20081;-37
2021/07/14 12:55:47;;;;;;;3.17;0.62;;;37.40;23.90;;;;;;4283331;33;20599;-37
2021/07/14 12:58:20;;;;;;;0.62;0.40;;;37.40;24.00;;;;;;4288510;33;20139;-37
2021/07/14 13:00:49;;;;;;;7.22;0.40;;;37.20;23.70;;;;;;4327409;33;20152;-37
2021/07/14 13:03:22;;;;;;;1.10;0.40;;;36.90;23.90;;;;;;4315126;33;20471;-37
2021/07/14 13:05:49;;;;;;;0.93;0.50;;;36.80;24.10;;;;;;4314747;33;20072;-37
2021/07/14 13:08:29;;;;;;;1.00;0.55;;;36.70;24.10;;;;;;4314965;33;20151;-37
2021/07/14 13:11:03;;;;;;;3.00;0.80;;;36.60;24.20;;;;;;4315661;33;20079;-37